sensor_id;sensor_type;location;lat;lon;timestamp;P1;durP1;ratioP1;P2;durP2;ratioP2
12756;SDS011;31601;48.042;12.240;2022-12-29T00:01:19;8.00;;;5.83;;
12756;SDS011;31601;48.042;12.240;2022-12-29T00:03:45;7.40;;;5.33;;
12756;SDS011;31601;48.042;12.240;2022-12-29T00:06:12;7.10;;;5.53;;
12756;SDS011;31601;48.042;12.240;2022-12-29T00:08:38;8.30;;;6.10;;
12756;SDS011;31601;48.042;12.240;2022-12-29T00:11:05;7.20;;;5.20;;
12756;SDS011;31601;48.042;12.240;2022-12-29T00:13:36;7.70;;;5.80;;
12756;SDS011;31601;48.042;12.240;2022-12-29T00:16:20;7.63;;;5.10;;
12756;SDS011;31601;48.042;12.240;2022-12-29T00:18:47;10.17;;;5.70;;
12756;SDS011;31601;48.042;12.240;2022-12-29T00:21:13;7.07;;;5.27;;
12756;SDS011;31601;48.042;12.240;2022-12-29T00:23:58;9.57;;;5.63;;
12756;SDS011;31601;48.042;12.240;2022-12-29T00:26:44;7.43;;;5.77;;
12756;SDS011;31601;48.042;12.240;2022-12-29T00:29:30;7.33;;;5.40;;
12756;SDS011;31601;48.042;12.240;2022-12-29T00:32:14;11.93;;;6.47;;
12756;SDS011;31601;48.042;12.240;2022-12-29T00:34:58;10.27;;;6.97;;
12756;SDS011;31601;48.042;12.240;2022-12-29T00:37:37;10.70;;;6.50;;
12756;SDS011;31601;48.042;12.240;2022-12-29T00:40:25;8.87;;;6.10;;
12756;SDS011;31601;48.042;12.240;2022-12-29T00:43:09;10.77;;;7.03;;
12756;SDS011;31601;48.042;12.240;2022-12-29T00:45:54;11.77;;;6.00;;
12756;SDS011;31601;48.042;12.240;2022-12-29T00:48:21;8.70;;;5.70;;
12756;SDS011;31601;48.042;12.240;2022-12-29T00:51:01;7.57;;;5.50;;
12756;SDS011;31601;48.042;12.240;2022-12-29T00:53:28;8.90;;;5.07;;
12756;SDS011;31601;48.042;12.240;2022-12-29T00:55:55;7.97;;;5.70;;
12756;SDS011;31601;48.042;12.240;2022-12-29T00:58:21;11.30;;;5.27;;
12756;SDS011;31601;48.042;12.240;2022-12-29T01:00:48;5.93;;;4.30;;
12756;SDS011;31601;48.042;12.240;2022-12-29T01:03:15;5.87;;;4.63;;
12756;SDS011;31601;48.042;12.240;2022-12-29T01:05:42;7.60;;;5.30;;
12756;SDS011;31601;48.042;12.240;2022-12-29T01:08:09;9.20;;;5.47;;
12756;SDS011;31601;48.042;12.240;2022-12-29T01:10:35;7.30;;;5.20;;
12756;SDS011;31601;48.042;12.240;2022-12-29T01:13:01;6.80;;;5.00;;
12756;SDS011;31601;48.042;12.240;2022-12-29T01:15:27;7.80;;;5.13;;
12756;SDS011;31601;48.042;12.240;2022-12-29T01:17:53;8.27;;;5.27;;
12756;SDS011;31601;48.042;12.240;2022-12-29T01:20:21;9.77;;;5.23;;
12756;SDS011;31601;48.042;12.240;2022-12-29T01:22:48;6.80;;;5.07;;
12756;SDS011;31601;48.042;12.240;2022-12-29T01:25:14;7.10;;;5.00;;
12756;SDS011;31601;48.042;12.240;2022-12-29T01:27:40;6.73;;;5.17;;
12756;SDS011;31601;48.042;12.240;2022-12-29T01:30:07;9.40;;;5.10;;
12756;SDS011;31601;48.042;12.240;2022-12-29T01:32:35;6.73;;;4.80;;
12756;SDS011;31601;48.042;12.240;2022-12-29T01:35:01;6.97;;;5.20;;
12756;SDS011;31601;48.042;12.240;2022-12-29T01:37:29;5.60;;;4.40;;
12756;SDS011;31601;48.042;12.240;2022-12-29T01:39:55;6.67;;;4.47;;
12756;SDS011;31601;48.042;12.240;2022-12-29T01:42:22;6.77;;;4.97;;
12756;SDS011;31601;48.042;12.240;2022-12-29T01:44:52;7.50;;;5.00;;
12756;SDS011;31601;48.042;12.240;2022-12-29T01:47:30;8.53;;;5.03;;
12756;SDS011;31601;48.042;12.240;2022-12-29T01:50:03;7.63;;;4.90;;
12756;SDS011;31601;48.042;12.240;2022-12-29T01:52:37;7.43;;;5.23;;
12756;SDS011;31601;48.042;12.240;2022-12-29T01:55:08;6.77;;;5.03;;
12756;SDS011;31601;48.042;12.240;2022-12-29T01:57:37;10.17;;;4.93;;
12756;SDS011;31601;48.042;12.240;2022-12-29T02:00:07;8.03;;;5.20;;
12756;SDS011;31601;48.042;12.240;2022-12-29T02:02:36;8.13;;;5.10;;
12756;SDS011;31601;48.042;12.240;2022-12-29T02:05:05;7.27;;;4.83;;
12756;SDS011;31601;48.042;12.240;2022-12-29T02:07:41;8.60;;;5.43;;
12756;SDS011;31601;48.042;12.240;2022-12-29T02:10:09;7.17;;;5.20;;
12756;SDS011;31601;48.042;12.240;2022-12-29T02:12:35;8.17;;;5.43;;
12756;SDS011;31601;48.042;12.240;2022-12-29T02:15:02;8.23;;;5.40;;
12756;SDS011;31601;48.042;12.240;2022-12-29T02:17:34;6.87;;;4.80;;
12756;SDS011;31601;48.042;12.240;2022-12-29T02:23:18;6.40;;;4.53;;
12756;SDS011;31601;48.042;12.240;2022-12-29T02:26:04;6.60;;;4.53;;
12756;SDS011;31601;48.042;12.240;2022-12-29T02:28:53;6.03;;;4.67;;
12756;SDS011;31601;48.042;12.240;2022-12-29T02:31:36;7.77;;;4.53;;
12756;SDS011;31601;48.042;12.240;2022-12-29T02:34:14;9.13;;;5.60;;
12756;SDS011;31601;48.042;12.240;2022-12-29T02:36:50;8.03;;;4.33;;
12756;SDS011;31601;48.042;12.240;2022-12-29T02:39:27;6.83;;;4.60;;
12756;SDS011;31601;48.042;12.240;2022-12-29T02:42:03;7.87;;;4.83;;
12756;SDS011;31601;48.042;12.240;2022-12-29T02:44:40;6.83;;;4.57;;
12756;SDS011;31601;48.042;12.240;2022-12-29T02:47:21;6.27;;;4.90;;
12756;SDS011;31601;48.042;12.240;2022-12-29T02:49:53;6.23;;;4.50;;
12756;SDS011;31601;48.042;12.240;2022-12-29T02:52:26;5.83;;;4.30;;
12756;SDS011;31601;48.042;12.240;2022-12-29T02:54:58;9.27;;;4.90;;
12756;SDS011;31601;48.042;12.240;2022-12-29T02:57:28;5.63;;;4.23;;
12756;SDS011;31601;48.042;12.240;2022-12-29T02:59:56;7.50;;;4.57;;
12756;SDS011;31601;48.042;12.240;2022-12-29T03:02:30;6.90;;;4.97;;
12756;SDS011;31601;48.042;12.240;2022-12-29T03:05:15;5.67;;;4.20;;
12756;SDS011;31601;48.042;12.240;2022-12-29T03:07:50;5.63;;;4.20;;
12756;SDS011;31601;48.042;12.240;2022-12-29T03:10:28;6.27;;;4.47;;
12756;SDS011;31601;48.042;12.240;2022-12-29T03:13:02;8.00;;;4.80;;
12756;SDS011;31601;48.042;12.240;2022-12-29T03:15:51;11.70;;;6.97;;
12756;SDS011;31601;48.042;12.240;2022-12-29T03:18:35;7.63;;;4.90;;
12756;SDS011;31601;48.042;12.240;2022-12-29T03:21:08;8.03;;;5.30;;
12756;SDS011;31601;48.042;12.240;2022-12-29T03:23:38;17.83;;;8.10;;
12756;SDS011;31601;48.042;12.240;2022-12-29T03:26:09;42.93;;;20.63;;
12756;SDS011;31601;48.042;12.240;2022-12-29T03:28:38;48.73;;;25.57;;
12756;SDS011;31601;48.042;12.240;2022-12-29T03:31:10;33.13;;;18.10;;
12756;SDS011;31601;48.042;12.240;2022-12-29T03:33:40;18.63;;;11.63;;
12756;SDS011;31601;48.042;12.240;2022-12-29T03:36:09;20.13;;;12.40;;
12756;SDS011;31601;48.042;12.240;2022-12-29T03:38:43;16.00;;;9.97;;
12756;SDS011;31601;48.042;12.240;2022-12-29T03:41:14;8.27;;;5.73;;
12756;SDS011;31601;48.042;12.240;2022-12-29T03:43:44;12.80;;;8.43;;
12756;SDS011;31601;48.042;12.240;2022-12-29T03:46:11;24.07;;;14.70;;
12756;SDS011;31601;48.042;12.240;2022-12-29T03:48:38;36.53;;;21.60;;
12756;SDS011;31601;48.042;12.240;2022-12-29T03:51:05;46.37;;;27.23;;
12756;SDS011;31601;48.042;12.240;2022-12-29T03:53:32;44.73;;;23.47;;
12756;SDS011;31601;48.042;12.240;2022-12-29T03:55:58;34.97;;;21.00;;
12756;SDS011;31601;48.042;12.240;2022-12-29T03:58:25;24.70;;;13.63;;
12756;SDS011;31601;48.042;12.240;2022-12-29T04:00:51;19.33;;;12.27;;
12756;SDS011;31601;48.042;12.240;2022-12-29T04:03:17;26.83;;;17.33;;
12756;SDS011;31601;48.042;12.240;2022-12-29T04:05:45;15.03;;;9.77;;
12756;SDS011;31601;48.042;12.240;2022-12-29T04:08:12;18.40;;;12.23;;
12756;SDS011;31601;48.042;12.240;2022-12-29T04:10:38;18.33;;;11.63;;
12756;SDS011;31601;48.042;12.240;2022-12-29T04:13:05;19.07;;;12.00;;
12756;SDS011;31601;48.042;12.240;2022-12-29T04:15:31;13.47;;;8.67;;
12756;SDS011;31601;48.042;12.240;2022-12-29T04:17:58;7.77;;;4.63;;
12756;SDS011;31601;48.042;12.240;2022-12-29T04:20:24;8.50;;;6.47;;
12756;SDS011;31601;48.042;12.240;2022-12-29T04:23:09;6.57;;;4.97;;
12756;SDS011;31601;48.042;12.240;2022-12-29T04:25:36;6.63;;;4.70;;
12756;SDS011;31601;48.042;12.240;2022-12-29T04:28:02;5.83;;;3.93;;
12756;SDS011;31601;48.042;12.240;2022-12-29T04:30:29;6.40;;;4.77;;
12756;SDS011;31601;48.042;12.240;2022-12-29T04:32:55;6.70;;;4.27;;
12756;SDS011;31601;48.042;12.240;2022-12-29T04:35:22;6.67;;;4.10;;
12756;SDS011;31601;48.042;12.240;2022-12-29T04:37:48;6.43;;;4.40;;
12756;SDS011;31601;48.042;12.240;2022-12-29T04:40:16;5.57;;;4.37;;
12756;SDS011;31601;48.042;12.240;2022-12-29T04:42:42;4.47;;;3.77;;
12756;SDS011;31601;48.042;12.240;2022-12-29T04:45:09;6.13;;;4.03;;
12756;SDS011;31601;48.042;12.240;2022-12-29T04:47:36;6.87;;;4.13;;
12756;SDS011;31601;48.042;12.240;2022-12-29T04:50:03;8.73;;;4.37;;
12756;SDS011;31601;48.042;12.240;2022-12-29T04:52:30;6.23;;;4.23;;
12756;SDS011;31601;48.042;12.240;2022-12-29T04:54:56;5.70;;;3.50;;
12756;SDS011;31601;48.042;12.240;2022-12-29T04:57:24;5.60;;;3.93;;
12756;SDS011;31601;48.042;12.240;2022-12-29T04:59:50;7.97;;;4.30;;
12756;SDS011;31601;48.042;12.240;2022-12-29T05:02:17;5.23;;;4.43;;
12756;SDS011;31601;48.042;12.240;2022-12-29T05:04:44;5.17;;;4.10;;
12756;SDS011;31601;48.042;12.240;2022-12-29T05:07:10;6.07;;;4.00;;
12756;SDS011;31601;48.042;12.240;2022-12-29T05:09:37;5.83;;;4.33;;
12756;SDS011;31601;48.042;12.240;2022-12-29T05:12:03;9.83;;;5.23;;
12756;SDS011;31601;48.042;12.240;2022-12-29T05:14:32;6.67;;;4.80;;
12756;SDS011;31601;48.042;12.240;2022-12-29T05:16:59;6.30;;;3.90;;
12756;SDS011;31601;48.042;12.240;2022-12-29T05:19:25;8.23;;;4.77;;
12756;SDS011;31601;48.042;12.240;2022-12-29T05:21:51;7.27;;;4.90;;
12756;SDS011;31601;48.042;12.240;2022-12-29T05:24:19;7.97;;;4.53;;
12756;SDS011;31601;48.042;12.240;2022-12-29T05:26:46;6.53;;;4.47;;
12756;SDS011;31601;48.042;12.240;2022-12-29T05:29:12;6.60;;;3.97;;
12756;SDS011;31601;48.042;12.240;2022-12-29T05:31:40;7.30;;;4.83;;
12756;SDS011;31601;48.042;12.240;2022-12-29T05:34:06;6.80;;;3.83;;
12756;SDS011;31601;48.042;12.240;2022-12-29T05:36:33;5.20;;;3.83;;
12756;SDS011;31601;48.042;12.240;2022-12-29T05:38:59;5.67;;;3.90;;
12756;SDS011;31601;48.042;12.240;2022-12-29T05:41:25;4.73;;;3.70;;
12756;SDS011;31601;48.042;12.240;2022-12-29T05:43:52;4.23;;;3.60;;
12756;SDS011;31601;48.042;12.240;2022-12-29T05:46:18;6.17;;;4.17;;
12756;SDS011;31601;48.042;12.240;2022-12-29T05:48:46;6.23;;;3.80;;
12756;SDS011;31601;48.042;12.240;2022-12-29T05:51:12;6.00;;;3.47;;
12756;SDS011;31601;48.042;12.240;2022-12-29T05:53:39;5.07;;;4.03;;
12756;SDS011;31601;48.042;12.240;2022-12-29T05:56:05;5.13;;;3.30;;
12756;SDS011;31601;48.042;12.240;2022-12-29T05:58:32;5.10;;;3.53;;
12756;SDS011;31601;48.042;12.240;2022-12-29T06:00:58;8.40;;;4.67;;
12756;SDS011;31601;48.042;12.240;2022-12-29T06:03:25;6.47;;;4.73;;
12756;SDS011;31601;48.042;12.240;2022-12-29T06:05:53;6.43;;;4.73;;
12756;SDS011;31601;48.042;12.240;2022-12-29T06:08:19;6.83;;;6.07;;
12756;SDS011;31601;48.042;12.240;2022-12-29T06:10:45;8.17;;;5.40;;
12756;SDS011;31601;48.042;12.240;2022-12-29T06:13:12;6.00;;;4.80;;
12756;SDS011;31601;48.042;12.240;2022-12-29T06:15:38;7.43;;;5.00;;
12756;SDS011;31601;48.042;12.240;2022-12-29T06:18:05;62.63;;;30.23;;
12756;SDS011;31601;48.042;12.240;2022-12-29T06:20:31;27.10;;;14.93;;
12756;SDS011;31601;48.042;12.240;2022-12-29T06:22:59;24.93;;;12.57;;
12756;SDS011;31601;48.042;12.240;2022-12-29T06:25:25;18.97;;;11.27;;
12756;SDS011;31601;48.042;12.240;2022-12-29T06:27:53;21.17;;;9.80;;
12756;SDS011;31601;48.042;12.240;2022-12-29T06:30:21;14.97;;;9.50;;
12756;SDS011;31601;48.042;12.240;2022-12-29T06:32:47;11.47;;;7.73;;
12756;SDS011;31601;48.042;12.240;2022-12-29T06:35:13;6.73;;;4.97;;
12756;SDS011;31601;48.042;12.240;2022-12-29T06:37:40;7.03;;;4.73;;
12756;SDS011;31601;48.042;12.240;2022-12-29T06:40:09;5.20;;;3.70;;
12756;SDS011;31601;48.042;12.240;2022-12-29T06:42:36;5.00;;;3.53;;
12756;SDS011;31601;48.042;12.240;2022-12-29T06:45:03;6.10;;;3.83;;
12756;SDS011;31601;48.042;12.240;2022-12-29T06:47:30;5.60;;;4.23;;
12756;SDS011;31601;48.042;12.240;2022-12-29T06:49:57;5.57;;;3.90;;
12756;SDS011;31601;48.042;12.240;2022-12-29T06:52:23;6.30;;;4.30;;
12756;SDS011;31601;48.042;12.240;2022-12-29T06:54:49;5.87;;;3.60;;
12756;SDS011;31601;48.042;12.240;2022-12-29T06:57:17;7.03;;;3.60;;
12756;SDS011;31601;48.042;12.240;2022-12-29T06:59:44;7.30;;;4.77;;
12756;SDS011;31601;48.042;12.240;2022-12-29T07:02:10;6.30;;;4.37;;
12756;SDS011;31601;48.042;12.240;2022-12-29T07:04:39;7.87;;;4.40;;
12756;SDS011;31601;48.042;12.240;2022-12-29T07:07:05;7.67;;;4.67;;
12756;SDS011;31601;48.042;12.240;2022-12-29T07:09:32;9.20;;;4.43;;
12756;SDS011;31601;48.042;12.240;2022-12-29T07:11:58;7.50;;;4.10;;
12756;SDS011;31601;48.042;12.240;2022-12-29T07:14:26;7.43;;;4.90;;
12756;SDS011;31601;48.042;12.240;2022-12-29T07:16:52;10.23;;;6.73;;
12756;SDS011;31601;48.042;12.240;2022-12-29T07:19:19;12.30;;;7.40;;
12756;SDS011;31601;48.042;12.240;2022-12-29T07:21:46;8.97;;;5.53;;
12756;SDS011;31601;48.042;12.240;2022-12-29T07:24:12;9.43;;;6.10;;
12756;SDS011;31601;48.042;12.240;2022-12-29T07:26:38;9.50;;;6.00;;
12756;SDS011;31601;48.042;12.240;2022-12-29T07:29:06;10.57;;;7.37;;
12756;SDS011;31601;48.042;12.240;2022-12-29T07:31:33;12.43;;;5.53;;
12756;SDS011;31601;48.042;12.240;2022-12-29T07:34:00;14.67;;;9.00;;
12756;SDS011;31601;48.042;12.240;2022-12-29T07:36:26;11.10;;;6.83;;
12756;SDS011;31601;48.042;12.240;2022-12-29T07:38:53;41.07;;;23.03;;
12756;SDS011;31601;48.042;12.240;2022-12-29T07:41:19;87.07;;;45.27;;
12756;SDS011;31601;48.042;12.240;2022-12-29T07:43:46;8.83;;;5.97;;
12756;SDS011;31601;48.042;12.240;2022-12-29T07:46:13;13.23;;;8.30;;
12756;SDS011;31601;48.042;12.240;2022-12-29T07:48:41;20.43;;;11.37;;
12756;SDS011;31601;48.042;12.240;2022-12-29T07:51:08;27.10;;;17.20;;
12756;SDS011;31601;48.042;12.240;2022-12-29T07:53:34;21.53;;;14.77;;
12756;SDS011;31601;48.042;12.240;2022-12-29T07:56:01;31.07;;;19.47;;
12756;SDS011;31601;48.042;12.240;2022-12-29T07:58:27;28.03;;;18.33;;
12756;SDS011;31601;48.042;12.240;2022-12-29T08:00:54;23.33;;;14.23;;
12756;SDS011;31601;48.042;12.240;2022-12-29T08:03:20;13.27;;;8.23;;
12756;SDS011;31601;48.042;12.240;2022-12-29T08:05:48;9.43;;;7.40;;
12756;SDS011;31601;48.042;12.240;2022-12-29T08:08:14;8.40;;;6.37;;
12756;SDS011;31601;48.042;12.240;2022-12-29T08:10:41;7.53;;;4.47;;
12756;SDS011;31601;48.042;12.240;2022-12-29T08:13:07;6.10;;;3.53;;
12756;SDS011;31601;48.042;12.240;2022-12-29T08:15:34;9.67;;;6.77;;
12756;SDS011;31601;48.042;12.240;2022-12-29T08:18:00;8.10;;;6.43;;
12756;SDS011;31601;48.042;12.240;2022-12-29T08:20:27;6.93;;;5.43;;
12756;SDS011;31601;48.042;12.240;2022-12-29T08:22:54;5.93;;;4.63;;
12756;SDS011;31601;48.042;12.240;2022-12-29T08:25:21;6.37;;;4.80;;
12756;SDS011;31601;48.042;12.240;2022-12-29T08:27:47;5.20;;;4.47;;
12756;SDS011;31601;48.042;12.240;2022-12-29T08:30:14;7.03;;;5.73;;
12756;SDS011;31601;48.042;12.240;2022-12-29T08:32:41;5.93;;;4.13;;
12756;SDS011;31601;48.042;12.240;2022-12-29T08:35:08;6.37;;;4.57;;
12756;SDS011;31601;48.042;12.240;2022-12-29T08:37:34;6.43;;;3.90;;
12756;SDS011;31601;48.042;12.240;2022-12-29T08:40:02;6.13;;;4.47;;
12756;SDS011;31601;48.042;12.240;2022-12-29T08:42:30;8.23;;;4.67;;
12756;SDS011;31601;48.042;12.240;2022-12-29T08:44:57;7.63;;;4.63;;
12756;SDS011;31601;48.042;12.240;2022-12-29T08:47:23;6.60;;;3.70;;
12756;SDS011;31601;48.042;12.240;2022-12-29T08:49:50;5.07;;;3.87;;
12756;SDS011;31601;48.042;12.240;2022-12-29T08:52:16;8.03;;;4.13;;
12756;SDS011;31601;48.042;12.240;2022-12-29T08:54:43;4.57;;;3.93;;
12756;SDS011;31601;48.042;12.240;2022-12-29T08:57:11;4.30;;;3.50;;
12756;SDS011;31601;48.042;12.240;2022-12-29T08:59:37;6.33;;;3.70;;
12756;SDS011;31601;48.042;12.240;2022-12-29T09:02:04;6.77;;;3.93;;
12756;SDS011;31601;48.042;12.240;2022-12-29T09:04:30;6.90;;;3.93;;
12756;SDS011;31601;48.042;12.240;2022-12-29T09:06:57;10.67;;;4.20;;
12756;SDS011;31601;48.042;12.240;2022-12-29T09:09:23;6.57;;;4.50;;
12756;SDS011;31601;48.042;12.240;2022-12-29T09:11:50;9.17;;;5.50;;
12756;SDS011;31601;48.042;12.240;2022-12-29T09:14:17;7.73;;;6.10;;
12756;SDS011;31601;48.042;12.240;2022-12-29T09:16:44;7.63;;;5.87;;
12756;SDS011;31601;48.042;12.240;2022-12-29T09:19:28;7.07;;;5.60;;
12756;SDS011;31601;48.042;12.240;2022-12-29T09:21:54;9.10;;;8.13;;
12756;SDS011;31601;48.042;12.240;2022-12-29T09:24:21;10.93;;;7.83;;
12756;SDS011;31601;48.042;12.240;2022-12-29T09:26:47;8.83;;;6.70;;
12756;SDS011;31601;48.042;12.240;2022-12-29T09:29:14;7.73;;;4.80;;
12756;SDS011;31601;48.042;12.240;2022-12-29T09:31:42;5.70;;;4.13;;
12756;SDS011;31601;48.042;12.240;2022-12-29T09:34:08;4.97;;;3.67;;
12756;SDS011;31601;48.042;12.240;2022-12-29T09:36:34;5.37;;;4.30;;
12756;SDS011;31601;48.042;12.240;2022-12-29T09:39:01;9.10;;;5.13;;
12756;SDS011;31601;48.042;12.240;2022-12-29T09:41:29;8.60;;;4.60;;
12756;SDS011;31601;48.042;12.240;2022-12-29T09:44:06;6.87;;;4.77;;
12756;SDS011;31601;48.042;12.240;2022-12-29T09:46:39;5.00;;;4.07;;
12756;SDS011;31601;48.042;12.240;2022-12-29T09:49:13;6.07;;;4.67;;
12756;SDS011;31601;48.042;12.240;2022-12-29T09:51:48;9.30;;;5.70;;
12756;SDS011;31601;48.042;12.240;2022-12-29T09:54:26;7.30;;;4.83;;
12756;SDS011;31601;48.042;12.240;2022-12-29T09:57:00;5.57;;;4.13;;
12756;SDS011;31601;48.042;12.240;2022-12-29T09:59:30;8.27;;;3.60;;
12756;SDS011;31601;48.042;12.240;2022-12-29T10:02:04;5.03;;;3.30;;
12756;SDS011;31601;48.042;12.240;2022-12-29T10:04:44;3.77;;;3.03;;
12756;SDS011;31601;48.042;12.240;2022-12-29T10:07:12;7.00;;;2.90;;
12756;SDS011;31601;48.042;12.240;2022-12-29T10:09:48;4.70;;;3.43;;
12756;SDS011;31601;48.042;12.240;2022-12-29T10:12:28;20.17;;;8.00;;
12756;SDS011;31601;48.042;12.240;2022-12-29T10:15:05;8.60;;;5.53;;
12756;SDS011;31601;48.042;12.240;2022-12-29T10:17:45;10.93;;;3.57;;
12756;SDS011;31601;48.042;12.240;2022-12-29T10:20:27;4.40;;;3.20;;
12756;SDS011;31601;48.042;12.240;2022-12-29T10:23:01;4.13;;;2.90;;
12756;SDS011;31601;48.042;12.240;2022-12-29T10:25:39;7.07;;;3.53;;
12756;SDS011;31601;48.042;12.240;2022-12-29T10:28:10;5.37;;;2.90;;
12756;SDS011;31601;48.042;12.240;2022-12-29T10:30:45;6.47;;;4.23;;
12756;SDS011;31601;48.042;12.240;2022-12-29T10:33:14;5.80;;;3.37;;
12756;SDS011;31601;48.042;12.240;2022-12-29T10:35:46;6.80;;;2.93;;
12756;SDS011;31601;48.042;12.240;2022-12-29T10:38:15;7.33;;;3.77;;
12756;SDS011;31601;48.042;12.240;2022-12-29T10:40:49;4.60;;;3.50;;
12756;SDS011;31601;48.042;12.240;2022-12-29T10:43:21;9.47;;;3.97;;
12756;SDS011;31601;48.042;12.240;2022-12-29T10:45:51;6.67;;;4.43;;
12756;SDS011;31601;48.042;12.240;2022-12-29T10:48:19;6.00;;;4.50;;
12756;SDS011;31601;48.042;12.240;2022-12-29T10:50:50;5.87;;;3.50;;
12756;SDS011;31601;48.042;12.240;2022-12-29T10:53:22;5.20;;;3.40;;
12756;SDS011;31601;48.042;12.240;2022-12-29T10:55:51;6.20;;;3.70;;
12756;SDS011;31601;48.042;12.240;2022-12-29T10:58:19;7.33;;;3.20;;
12756;SDS011;31601;48.042;12.240;2022-12-29T11:00:48;5.80;;;2.87;;
12756;SDS011;31601;48.042;12.240;2022-12-29T11:06:08;4.03;;;3.00;;
12756;SDS011;31601;48.042;12.240;2022-12-29T11:08:39;4.23;;;3.23;;
12756;SDS011;31601;48.042;12.240;2022-12-29T11:11:21;8.10;;;3.70;;
12756;SDS011;31601;48.042;12.240;2022-12-29T11:13:54;5.27;;;3.37;;
12756;SDS011;31601;48.042;12.240;2022-12-29T11:16:26;5.23;;;3.83;;
12756;SDS011;31601;48.042;12.240;2022-12-29T11:18:55;7.73;;;3.53;;
12756;SDS011;31601;48.042;12.240;2022-12-29T11:21:29;6.93;;;3.80;;
12756;SDS011;31601;48.042;12.240;2022-12-29T11:23:58;5.90;;;4.87;;
12756;SDS011;31601;48.042;12.240;2022-12-29T11:26:26;6.40;;;4.10;;
12756;SDS011;31601;48.042;12.240;2022-12-29T11:29:05;5.93;;;3.63;;
12756;SDS011;31601;48.042;12.240;2022-12-29T11:31:43;6.50;;;3.43;;
12756;SDS011;31601;48.042;12.240;2022-12-29T11:34:16;5.90;;;3.97;;
12756;SDS011;31601;48.042;12.240;2022-12-29T11:36:46;5.43;;;3.67;;
12756;SDS011;31601;48.042;12.240;2022-12-29T11:39:30;7.80;;;3.57;;
12756;SDS011;31601;48.042;12.240;2022-12-29T11:41:59;9.03;;;5.93;;
12756;SDS011;31601;48.042;12.240;2022-12-29T11:44:27;11.87;;;6.07;;
12756;SDS011;31601;48.042;12.240;2022-12-29T11:47:00;5.73;;;3.60;;
12756;SDS011;31601;48.042;12.240;2022-12-29T11:49:27;8.83;;;5.20;;
12756;SDS011;31601;48.042;12.240;2022-12-29T11:51:55;8.87;;;4.17;;
12756;SDS011;31601;48.042;12.240;2022-12-29T11:54:23;6.33;;;3.67;;
12756;SDS011;31601;48.042;12.240;2022-12-29T11:56:53;4.87;;;3.83;;
12756;SDS011;31601;48.042;12.240;2022-12-29T11:59:38;10.57;;;4.10;;
12756;SDS011;31601;48.042;12.240;2022-12-29T12:02:18;5.37;;;3.80;;
12756;SDS011;31601;48.042;12.240;2022-12-29T12:04:58;7.20;;;3.27;;
12756;SDS011;31601;48.042;12.240;2022-12-29T12:07:33;5.07;;;3.20;;
12756;SDS011;31601;48.042;12.240;2022-12-29T12:10:05;5.67;;;3.23;;
12756;SDS011;31601;48.042;12.240;2022-12-29T12:12:34;4.30;;;3.23;;
12756;SDS011;31601;48.042;12.240;2022-12-29T12:15:04;6.57;;;3.50;;
12756;SDS011;31601;48.042;12.240;2022-12-29T12:17:36;5.53;;;2.90;;
12756;SDS011;31601;48.042;12.240;2022-12-29T12:20:12;6.03;;;2.93;;
12756;SDS011;31601;48.042;12.240;2022-12-29T12:22:50;5.57;;;2.93;;
12756;SDS011;31601;48.042;12.240;2022-12-29T12:25:25;6.07;;;3.53;;
12756;SDS011;31601;48.042;12.240;2022-12-29T12:27:59;3.73;;;2.87;;
12756;SDS011;31601;48.042;12.240;2022-12-29T12:30:33;6.33;;;3.20;;
12756;SDS011;31601;48.042;12.240;2022-12-29T12:33:05;5.47;;;3.23;;
12756;SDS011;31601;48.042;12.240;2022-12-29T12:35:43;6.13;;;3.43;;
12756;SDS011;31601;48.042;12.240;2022-12-29T12:38:21;5.83;;;2.97;;
12756;SDS011;31601;48.042;12.240;2022-12-29T12:41:00;4.03;;;3.10;;
12756;SDS011;31601;48.042;12.240;2022-12-29T12:43:37;4.30;;;2.90;;
12756;SDS011;31601;48.042;12.240;2022-12-29T12:46:10;4.83;;;3.40;;
12756;SDS011;31601;48.042;12.240;2022-12-29T12:48:49;3.23;;;2.27;;
12756;SDS011;31601;48.042;12.240;2022-12-29T12:51:28;5.33;;;2.43;;
12756;SDS011;31601;48.042;12.240;2022-12-29T12:54:13;5.00;;;2.83;;
12756;SDS011;31601;48.042;12.240;2022-12-29T12:56:53;8.83;;;4.73;;
12756;SDS011;31601;48.042;12.240;2022-12-29T12:59:32;9.47;;;3.97;;
12756;SDS011;31601;48.042;12.240;2022-12-29T13:02:14;4.03;;;3.20;;
12756;SDS011;31601;48.042;12.240;2022-12-29T13:04:55;3.63;;;2.60;;
12756;SDS011;31601;48.042;12.240;2022-12-29T13:07:33;4.70;;;2.80;;
12756;SDS011;31601;48.042;12.240;2022-12-29T13:10:19;5.07;;;2.83;;
12756;SDS011;31601;48.042;12.240;2022-12-29T13:13:03;4.07;;;3.00;;
12756;SDS011;31601;48.042;12.240;2022-12-29T13:15:45;4.97;;;3.07;;
12756;SDS011;31601;48.042;12.240;2022-12-29T13:18:22;4.50;;;2.50;;
12756;SDS011;31601;48.042;12.240;2022-12-29T13:20:56;4.57;;;2.47;;
12756;SDS011;31601;48.042;12.240;2022-12-29T13:23:30;5.07;;;2.10;;
12756;SDS011;31601;48.042;12.240;2022-12-29T13:26:04;3.47;;;2.60;;
12756;SDS011;31601;48.042;12.240;2022-12-29T13:28:42;3.70;;;2.40;;
12756;SDS011;31601;48.042;12.240;2022-12-29T13:31:17;4.50;;;2.57;;
12756;SDS011;31601;48.042;12.240;2022-12-29T13:33:53;3.73;;;2.67;;
12756;SDS011;31601;48.042;12.240;2022-12-29T13:36:27;5.43;;;3.50;;
12756;SDS011;31601;48.042;12.240;2022-12-29T13:39:01;3.73;;;2.60;;
12756;SDS011;31601;48.042;12.240;2022-12-29T13:41:33;4.17;;;2.73;;
12756;SDS011;31601;48.042;12.240;2022-12-29T13:44:03;4.47;;;2.23;;
12756;SDS011;31601;48.042;12.240;2022-12-29T13:46:33;4.23;;;2.50;;
12756;SDS011;31601;48.042;12.240;2022-12-29T13:49:04;4.77;;;2.60;;
12756;SDS011;31601;48.042;12.240;2022-12-29T13:51:34;4.23;;;2.23;;
12756;SDS011;31601;48.042;12.240;2022-12-29T13:54:11;4.37;;;3.10;;
12756;SDS011;31601;48.042;12.240;2022-12-29T13:56:48;6.97;;;2.63;;
12756;SDS011;31601;48.042;12.240;2022-12-29T13:59:20;3.17;;;2.30;;
12756;SDS011;31601;48.042;12.240;2022-12-29T14:01:50;5.67;;;2.83;;
12756;SDS011;31601;48.042;12.240;2022-12-29T14:04:22;4.40;;;2.57;;
12756;SDS011;31601;48.042;12.240;2022-12-29T14:06:58;5.83;;;2.57;;
12756;SDS011;31601;48.042;12.240;2022-12-29T14:09:41;5.87;;;2.73;;
12756;SDS011;31601;48.042;12.240;2022-12-29T14:12:27;6.37;;;2.73;;
12756;SDS011;31601;48.042;12.240;2022-12-29T14:15:02;3.33;;;2.37;;
12756;SDS011;31601;48.042;12.240;2022-12-29T14:17:29;3.93;;;2.40;;
12756;SDS011;31601;48.042;12.240;2022-12-29T14:19:56;3.57;;;2.17;;
12756;SDS011;31601;48.042;12.240;2022-12-29T14:22:23;4.97;;;2.70;;
12756;SDS011;31601;48.042;12.240;2022-12-29T14:24:52;6.60;;;3.47;;
12756;SDS011;31601;48.042;12.240;2022-12-29T14:33:15;7.17;;;3.53;;
12756;SDS011;31601;48.042;12.240;2022-12-29T14:35:43;6.03;;;3.10;;
12756;SDS011;31601;48.042;12.240;2022-12-29T14:38:24;7.87;;;5.07;;
12756;SDS011;31601;48.042;12.240;2022-12-29T14:40:53;9.47;;;3.40;;
12756;SDS011;31601;48.042;12.240;2022-12-29T14:43:59;11.53;;;5.30;;
12756;SDS011;31601;48.042;12.240;2022-12-29T14:46:42;11.20;;;6.07;;
12756;SDS011;31601;48.042;12.240;2022-12-29T14:49:13;17.70;;;9.47;;
12756;SDS011;31601;48.042;12.240;2022-12-29T14:51:43;21.90;;;10.27;;
12756;SDS011;31601;48.042;12.240;2022-12-29T14:57:13;17.13;;;8.77;;
12756;SDS011;31601;48.042;12.240;2022-12-29T14:59:46;18.93;;;10.00;;
12756;SDS011;31601;48.042;12.240;2022-12-29T15:02:16;21.10;;;7.33;;
12756;SDS011;31601;48.042;12.240;2022-12-29T15:04:45;10.90;;;6.50;;
12756;SDS011;31601;48.042;12.240;2022-12-29T15:07:12;14.17;;;8.27;;